x

Stonewall Bank - 20nm West Of Newport, Or (46050) Wave Buoy

1:50am - Thu 29th Sep 2016 All times are PDT. -7 hours from GMT.

  • Sig Wave height 6.9ft
  • Swell Direction
  • Peak Period 8s
  • Average Period 6s
  • Wind
    22mph, 27mph gusts
  • Sea Temp 55°f
  • Air Temp 57°f
  • Sea Pressure 1016.4mb
  • Stonewall Bank - 20nm West Of Newport, Or
  • Stonewall Bank - 20nm West Of Newport, Or

More Historic Weather Station data

Upgrade to MSW Pro to gain access to the past 30 days of data for over 8000 Wavebouys and Weather Stations around the globe.

Join Pro

Comparision Forecast

View Surf forecast
   
Thu 09/29 1:50am 7ft 8s 6s 22 27 mph 1016.4mb 55f 57f
12:50am 6.5ft 8s 6s 22 27 mph 1016.4mb 55f 57f
Wed 09/28 11:50pm 6.5ft 8s 6s 22 27 mph 1016.3mb 55f 57f
10:50pm 6.5ft 9s 6s 20 27 mph 1016.4mb 55f 57f
9:50pm 6ft 8s 6s 20 22 mph 1016.2mb 55f 57f
8:50pm 6ft 8s 6s 20 25 mph 1016.3mb 55f 57f
7:50pm 6ft 8s 5s 18 22 mph 1016.3mb 55f 57f
6:50pm 6ft 8s 5s 16 20 mph 1016.5mb 55f 57f
5:50pm 6.5ft 8s 6s 18 20 mph 1016.7mb 55f 57f
4:50pm 6.5ft 8s 6s 18 20 mph 1016.7mb 55f 57f
3:50pm 6.5ft 8s 6s 18 20 mph 1017mb 55f 57f
2:50pm 7ft 8s 6s 18 20 mph 1017.2mb 55f 57f
1:50pm 7.5ft 8s 6s 18 20 mph 1017.5mb 55f 57f
12:50pm 7.5ft 8s 6s 18 22 mph 1017.5mb 55f 57f
11:50am 7ft 8s 6s 18 20 mph 1017.7mb 55f 57f
10:50am 7ft 8s 6s 16 18 mph 1017.9mb 55f 57f
9:50am 6.5ft 8s 6s 13 18 mph 1018mb 55f 56f
8:50am 7ft 8s 6s 16 18 mph 1018.1mb 55f 56f
7:50am 7ft 8s 6s 16 20 mph 1017.9mb 55f 56f
6:50am 6.5ft 8s 6s 18 20 mph 1017.6mb 55f 57f
5:50am 6ft 9s 6s 18 20 mph 1017.5mb 55f 57f
4:50am 7ft 9s 6s 18 20 mph 1017.4mb 55f 57f
3:50am 7.5ft 9s 6s 18 22 mph 1017.5mb 55f 57f
2:50am 7.5ft 8s 6s 18 20 mph 1017.8mb 55f 57f
1:50am 7ft 8s 6s 18 20 mph 1017.9mb 55f 57f
12:50am 7ft 9s 6s 20 22 mph 1018mb 55f 57f
Tue 09/27 11:50pm 8ft 8s 6s 20 25 mph 1017.7mb 55f 57f
10:50pm 8.5ft 8s 6s 20 25 mph 1017.8mb 55f 57f
9:50pm 7ft 8s 6s 20 25 mph 1017.9mb 56f 57f
8:50pm 8ft 8s 6s 20 25 mph 1018mb 56f 57f
7:50pm 8.5ft 8s 6s 20 22 mph 1017.7mb 57f 57f
6:50pm 8ft 8s 6s 20 25 mph 1017.9mb 57f 58f
5:50pm 8ft 7s 6s 22 27 mph 1018.2mb 57f 58f
4:50pm 7.5ft 8s 6s 22 27 mph 1018.6mb 57f 58f
3:50pm 7.5ft 8s 6s 25 29 mph 1019.2mb 58f 58f
2:50pm 7ft 7s 6s 22 27 mph 1019.6mb 58f 58f
1:50pm 7ft 8s 6s 22 27 mph 1020.2mb 58f 58f
12:50pm 6.5ft 8s 6s 22 27 mph 1020.5mb 58f 58f
11:50am 6ft 11s 6s 22 29 mph 1021mb 58f 59f
10:50am 7ft 11s 6s 25 29 mph 1021.1mb 58f 59f
9:50am 6ft 11s 6s 20 25 mph 1021.4mb 58f 59f
8:50am 5ft 11s 5s 20 25 mph 1021.1mb 58f 59f
7:50am 5ft 10s 7s 20 25 mph 1020.8mb 58f 59f
6:50am 5ft 10s 7s 11 16 mph 1020.7mb 58f 60f
5:50am 5.5ft 11s 7s 11 13 mph 1020.5mb 58f 60f
4:50am 6ft 10s 7s 11 13 mph 1020.4mb 58f 60f
3:50am 6.5ft 10s 7s 9 11 mph 1020.3mb 57f 60f
2:50am 6ft 10s 7s 9 11 mph 1020.3mb 57f 60f
1:50am 6ft 9s 7s 9 11 mph 1020.1mb 57f 59f
12:50am 6ft 10s 7s 7 9 mph 1020mb 57f 59f
Mon 09/26 11:50pm 6ft 10s 8s 4 7 mph 1019.7mb 58f 59f
10:50pm 6ft 9s 7s 7 9 mph 1019.8mb 58f 58f
9:50pm 6ft 10s 7s 11
mph
1019.5mb 58f 59f
8:50pm 5.5ft 11s 6s 13 16 mph 1019.1mb 58f 59f
7:50pm 5.5ft 9s 6s 13 16 mph 1018.7mb 58f 59f
6:50pm 5.5ft 10s 6s 13 18 mph 1018.2mb 58f 60f
5:50pm 5ft 10s 6s 18 22 mph 1018.1mb 58f 60f
4:50pm 5ft 10s 6s 13 16 mph 1018.2mb 58f 61f
3:50pm 5ft 10s 6s 13 18 mph 1018.3mb 59f 61f
2:50pm 5ft 10s 6s 13 16 mph 1018.1mb 59f 61f
1:50pm 5ft 10s 7s 13 16 mph 1018mb 59f 61f
12:50pm 5ft 10s 7s 13 16 mph 1017.7mb 58f 61f
11:50am 5.5ft 10s 7s 11 13 mph 1017.4mb 58f 60f
10:50am 5.5ft 11s 7s 11 13 mph 1017.5mb 58f 60f
9:50am 5.5ft 9s 6s 9 11 mph 1017mb 58f 59f
8:50am 5ft 10s 7s 7
mph
1016.9mb 57f 59f
7:50am 5ft 9s 7s 9
mph
1017.1mb 57f 59f
6:50am 5ft 9s 7s 11
mph
1017mb 57f 60f
5:50am 5ft 10s 7s 11 13 mph 1017mb 57f 59f
4:50am 4.5ft 9s 7s 9 11 mph 1017.2mb 57f 59f
3:50am 4.5ft 10s 7s 9 11 mph 1017.2mb 57f 59f
2:50am 4.5ft 11s 7s 11 13 mph 1018mb 57f 60f
1:50am 4.5ft 10s 7s 9 11 mph 1018.6mb 57f 60f
12:50am 5ft 10s 7s 11
mph
1019mb 57f 60f
Sun 09/25 11:50pm 5.5ft 11s 7s 11 13 mph 1019.4mb 57f 60f
10:50pm 5ft 10s 6s 13
mph
1019.3mb 57f 60f
9:50pm 5ft 11s 6s 16 18 mph 1019.7mb 57f 61f
8:50pm 5ft 11s 6s 16 18 mph 1020.2mb 58f 62f
7:50pm 5.5ft 10s 6s 16 18 mph 1020.5mb 58f 62f
6:50pm 5ft 11s 7s 16 18 mph 1020.9mb 58f 62f
5:50pm 5ft 10s 7s 16 18 mph 1021.7mb 58f 62f
4:50pm 4.5ft 10s 7s 16 18 mph 1022.3mb 58f 61f
3:50pm 5ft 10s 7s 13 16 mph 1023.3mb 58f 61f
2:50pm 4.5ft 10s 6s 16 18 mph 1024mb 59f 60f
1:50pm 5ft 10s 8s 16 18 mph 1024.9mb 59f 60f
12:50pm 4.5ft 10s 8s 7 9 mph 1025.5mb 58f 59f
11:50am 4.5ft 10s 9s 9 11 mph 1026mb 57f 59f
10:50am 4.5ft 10s 9s 9 11 mph 1026.4mb 58f 58f